Detroit, Michigan
Traffic Map
Current Weather Conditions
Detroit, Michigan
Clear
Clear
18°
Feels Like: 18°
Wind Chill: 18° Ceiling: Unl
Heat Index: 18° Visibility: 15mi
Dew Point: 16° Wind: 0mph
Humidity: 88% Direction: ° ()
Pressure: 30.11in Gusts: 0mph
Raw Report DataCYQG 220900Z 00000KT 15SM SKC 18/16 A3011 RMK SLP193
Traffic Incident Summary
Active as of:
Severity:
Category:
InformationThere was an issue retrieving the traffic information for this location. Please try a different location or try again shortly.
Advertisements
Track Severe Weather on mobile